createdAt,value
2018-03-20T00:00:02.459Z,0.3
2018-03-20T00:05:01.947Z,0.3
2018-03-20T00:10:01.857Z,0.3
2018-03-20T00:15:01.902Z,0.3
2018-03-20T00:20:02.563Z,0.3
2018-03-20T00:25:01.891Z,0.3
2018-03-20T00:30:01.913Z,0.7
2018-03-20T00:35:01.240Z,0.8
2018-03-20T00:40:02.566Z,0.8
2018-03-20T00:45:01.852Z,0.8
2018-03-20T00:50:01.767Z,1
2018-03-20T00:55:01.352Z,1
2018-03-20T01:00:01.785Z,1
2018-03-20T01:05:01.953Z,1
2018-03-20T01:10:02.162Z,1
2018-03-20T01:15:02.113Z,1
2018-03-20T01:20:01.784Z,1
2018-03-20T01:25:01.299Z,1
2018-03-20T01:30:01.564Z,1
2018-03-20T01:35:01.744Z,1
2018-03-20T01:40:02.036Z,1
2018-03-20T01:45:02.049Z,1.5
2018-03-20T01:50:02.462Z,1.5
2018-03-20T01:55:01.919Z,1.5
2018-03-20T02:00:02.057Z,1.5
2018-03-20T02:05:01.598Z,1.5
2018-03-20T02:10:02.337Z,1.5
2018-03-20T02:15:02.138Z,1.5
2018-03-20T02:20:02.128Z,1.7
2018-03-20T02:25:02.032Z,1.8
2018-03-20T02:30:01.460Z,1.8
2018-03-20T02:35:01.720Z,1.9
2018-03-20T02:40:01.636Z,1.9
2018-03-20T02:45:02.273Z,1.9
2018-03-20T02:50:01.410Z,2
2018-03-20T02:55:01.733Z,2
2018-03-20T03:00:02.546Z,2
2018-03-20T03:05:01.970Z,2
2018-03-20T03:10:01.267Z,2
2018-03-20T03:15:01.942Z,1.6
2018-03-20T03:20:02.289Z,1.6
2018-03-20T03:25:02.061Z,1.6
2018-03-20T03:30:01.237Z,1.6
2018-03-20T03:35:01.567Z,1.6
2018-03-20T03:40:02.033Z,1.6
2018-03-20T03:45:02.104Z,1.4
2018-03-20T03:50:01.489Z,1.4
2018-03-20T03:55:01.790Z,1.4
2018-03-20T04:00:01.774Z,1.4
2018-03-20T04:05:01.190Z,1.4
2018-03-20T04:10:02.052Z,1.3
2018-03-20T04:15:01.781Z,1.3
2018-03-20T04:20:01.996Z,1.3
2018-03-20T04:25:01.642Z,1.3
2018-03-20T04:30:01.710Z,1.3
2018-03-20T04:35:01.525Z,1.3
2018-03-20T04:40:02.218Z,1.3
2018-03-20T04:45:01.490Z,1.3
2018-03-20T04:50:01.403Z,1.3
2018-03-20T04:55:02.548Z,1.3
2018-03-20T05:00:01.834Z,1.3
2018-03-20T05:05:01.695Z,1.3
2018-03-20T05:10:02.029Z,1.3
2018-03-20T05:15:02.177Z,1.3
2018-03-20T05:20:01.932Z,1.3
2018-03-20T05:25:01.793Z,1.3
2018-03-20T05:30:01.272Z,1.3
2018-03-20T05:35:02.121Z,1.3
2018-03-20T05:40:01.237Z,1.3
2018-03-20T05:45:01.924Z,1.3
2018-03-20T05:50:02.032Z,1.3
2018-03-20T05:55:02.035Z,1.3
2018-03-20T06:00:01.700Z,1.3
2018-03-20T06:05:01.454Z,1.3
2018-03-20T06:10:02.005Z,1.1
2018-03-20T06:15:01.894Z,1.1
2018-03-20T06:20:02.081Z,1.1
2018-03-20T06:25:01.313Z,1.1
2018-03-20T06:30:01.847Z,1.1
2018-03-20T06:35:01.504Z,1.1
2018-03-20T06:40:01.554Z,1.1
2018-03-20T06:45:01.958Z,1.1
2018-03-20T06:50:01.955Z,1.1
2018-03-20T06:55:02.009Z,1.1
2018-03-20T07:00:02.227Z,1.3
2018-03-20T07:05:01.740Z,1.3
2018-03-20T07:10:01.770Z,1.3
2018-03-20T07:15:01.244Z,1.8
2018-03-20T07:20:01.943Z,1.8
2018-03-20T07:25:01.955Z,2
2018-03-20T07:30:01.390Z,2
2018-03-20T07:35:01.971Z,2
2018-03-20T07:40:02.082Z,2
2018-03-20T07:45:01.468Z,2
2018-03-20T07:50:01.754Z,2
2018-03-20T07:55:02.251Z,2
2018-03-20T08:00:02.226Z,2
2018-03-20T08:05:01.976Z,2.9
2018-03-20T08:10:01.364Z,2.9
2018-03-20T08:15:02.668Z,2.9
2018-03-20T08:20:02.022Z,2.9
2018-03-20T08:25:02.589Z,3.6
2018-03-20T08:30:01.487Z,3.6
2018-03-20T08:35:01.242Z,3.6
2018-03-20T08:40:01.509Z,4.1
2018-03-20T08:45:01.725Z,4.1
2018-03-20T08:50:01.540Z,4.1
2018-03-20T08:55:02.461Z,4.5
2018-03-20T09:00:01.941Z,4.6
2018-03-20T09:05:01.825Z,4.6
2018-03-20T09:10:01.601Z,4.6
2018-03-20T09:15:01.955Z,4.6
2018-03-20T09:20:01.766Z,4.6
2018-03-20T09:25:01.935Z,4.6
2018-03-20T09:30:02.033Z,4.6
2018-03-20T09:35:01.775Z,4.6
2018-03-20T09:40:01.658Z,4.6
2018-03-20T09:45:02.494Z,5.3
2018-03-20T09:50:01.445Z,5.4
2018-03-20T09:55:01.211Z,5.4
2018-03-20T10:00:01.879Z,5.4
2018-03-20T10:05:02.510Z,5.4
2018-03-20T10:10:02.180Z,5.4
2018-03-20T10:15:02.039Z,5.4
2018-03-20T10:20:01.753Z,6
2018-03-20T10:25:01.546Z,6
2018-03-20T10:30:02.146Z,6
2018-03-20T10:35:01.859Z,6
2018-03-20T10:40:02.157Z,6
2018-03-20T10:45:01.676Z,6
2018-03-20T10:50:01.556Z,6.8
2018-03-20T10:55:01.623Z,6.8
2018-03-20T11:00:01.376Z,6.8
2018-03-20T11:05:02.114Z,6.8
2018-03-20T11:10:01.981Z,6.8
2018-03-20T11:15:01.620Z,6.8
2018-03-20T11:20:01.814Z,6.8
2018-03-20T11:25:02.033Z,6.8
2018-03-20T11:30:02.136Z,6.8
2018-03-20T11:35:01.565Z,6.8
2018-03-20T11:40:01.721Z,7.6
2018-03-20T11:45:02.026Z,7.6
2018-03-20T11:50:02.100Z,7.6
2018-03-20T11:55:01.379Z,7.6
2018-03-20T12:00:02.459Z,7.6
2018-03-20T12:05:01.541Z,7.6
2018-03-20T12:10:01.650Z,7.6
2018-03-20T12:15:02.072Z,7.6
2018-03-20T12:20:01.973Z,7.6
2018-03-20T12:25:01.467Z,7.6
2018-03-20T12:30:02.173Z,8
2018-03-20T12:35:01.773Z,8
2018-03-20T12:40:02.305Z,8
2018-03-20T12:45:01.562Z,8
2018-03-20T12:50:01.307Z,8
2018-03-20T12:55:01.244Z,8
2018-03-20T13:00:02.283Z,8
2018-03-20T13:05:02.206Z,8
2018-03-20T13:10:01.925Z,8.3
2018-03-20T13:15:01.413Z,8.3
2018-03-20T13:20:01.668Z,8.3
2018-03-20T13:25:02.040Z,8.3
2018-03-20T13:30:01.439Z,8.3
2018-03-20T13:35:01.905Z,8.3
2018-03-20T13:40:01.701Z,8.3
2018-03-20T13:45:01.797Z,8.3
2018-03-20T13:50:01.702Z,8.3
2018-03-20T13:55:01.908Z,8.3
2018-03-20T14:00:01.380Z,8.3
2018-03-20T14:05:02.325Z,8.3
2018-03-20T14:10:01.898Z,8.3
2018-03-20T14:15:01.330Z,8.3
2018-03-20T14:20:01.917Z,8.3
2018-03-20T14:25:01.960Z,8.3
2018-03-20T14:30:01.709Z,8
2018-03-20T14:35:02.058Z,8
2018-03-20T14:40:02.049Z,8
2018-03-20T14:45:01.738Z,8
2018-03-20T14:50:01.979Z,8
2018-03-20T14:55:01.834Z,8
2018-03-20T15:00:01.536Z,8
2018-03-20T15:05:01.324Z,8
2018-03-20T15:10:01.898Z,8
2018-03-20T15:15:01.577Z,8
2018-03-20T15:20:01.425Z,8
2018-03-20T15:25:01.743Z,8
2018-03-20T15:30:01.426Z,8
2018-03-20T15:35:01.380Z,8
2018-03-20T15:40:01.812Z,8
2018-03-20T15:45:01.880Z,8
2018-03-20T15:50:01.916Z,8
2018-03-20T15:55:02.231Z,8
2018-03-20T16:00:01.467Z,8
2018-03-20T16:05:02.132Z,8
2018-03-20T16:10:01.661Z,6.4
2018-03-20T16:15:02.341Z,6.4
2018-03-20T16:20:02.048Z,6.4
2018-03-20T16:25:01.487Z,6.4
2018-03-20T16:30:01.243Z,5.7
2018-03-20T16:35:02.292Z,5.6
2018-03-20T16:40:01.283Z,5.5
2018-03-20T16:45:01.802Z,5.5
2018-03-20T16:50:01.259Z,5.5
2018-03-20T16:55:01.916Z,5.5
2018-03-20T17:00:01.583Z,5.5
2018-03-20T17:05:01.647Z,4.3
2018-03-20T17:10:02.330Z,4.3
2018-03-20T17:15:01.681Z,3.9
2018-03-20T17:20:01.468Z,3.9
2018-03-20T17:25:02.714Z,3.9
2018-03-20T17:30:01.405Z,3.9
2018-03-20T17:35:01.825Z,3.3
2018-03-20T17:40:02.460Z,3.3
2018-03-20T17:45:02.136Z,3.1
2018-03-20T17:50:01.377Z,3.1
2018-03-20T17:55:01.851Z,2.7
2018-03-20T18:00:01.873Z,2.7
2018-03-20T18:05:02.267Z,2.7
2018-03-20T18:10:01.971Z,2.7
2018-03-20T18:15:02.496Z,2.7
2018-03-20T18:20:01.375Z,2.7
2018-03-20T18:25:02.079Z,2.7
2018-03-20T18:30:01.238Z,2.7
2018-03-20T18:35:02.491Z,1.5
2018-03-20T18:40:02.013Z,1.5
2018-03-20T18:45:01.310Z,1.3
2018-03-20T18:50:01.739Z,1.1
2018-03-20T18:55:01.943Z,1.1
2018-03-20T19:00:02.337Z,1.1
2018-03-20T19:05:02.392Z,1.1
2018-03-20T19:10:01.850Z,1.1
2018-03-20T19:15:02.812Z,1.1
2018-03-20T19:20:01.606Z,1.1
2018-03-20T19:25:02.125Z,1.1
2018-03-20T19:30:01.466Z,1.1
2018-03-20T19:35:02.312Z,1.1
2018-03-20T19:40:01.451Z,1.1
2018-03-20T19:45:02.035Z,1.1
2018-03-20T19:50:01.239Z,1.1
2018-03-20T19:55:02.271Z,1.1
2018-03-20T20:00:01.489Z,1.1
2018-03-20T20:05:02.176Z,1.1
2018-03-20T20:10:01.873Z,1.1
2018-03-20T20:15:01.660Z,1.1
2018-03-20T20:20:01.580Z,1.1
2018-03-20T20:25:01.871Z,-0.9
2018-03-20T20:30:02.244Z,-0.9
2018-03-20T20:35:01.788Z,-0.9
2018-03-20T20:40:01.420Z,-0.9
2018-03-20T20:45:02.589Z,-0.9
2018-03-20T20:50:01.508Z,-0.9
2018-03-20T20:55:02.028Z,-0.9
2018-03-20T21:00:01.685Z,-0.9
2018-03-20T21:05:02.030Z,-1.5
2018-03-20T21:10:01.904Z,-1.5
2018-03-20T21:15:01.646Z,-1.5
2018-03-20T21:20:02.385Z,-1.5
2018-03-20T21:25:01.704Z,-1.5
2018-03-20T21:30:01.742Z,-1.5
2018-03-20T21:35:01.497Z,-1.5
2018-03-20T21:40:01.926Z,-1.5
2018-03-20T21:45:01.199Z,-1.5
2018-03-20T21:50:01.192Z,-1.5
2018-03-20T21:55:01.778Z,-1.5
2018-03-20T22:00:01.970Z,-2.2
2018-03-20T22:05:01.497Z,-2.2
2018-03-20T22:10:02.580Z,-2.2
2018-03-20T22:15:01.775Z,-2.2
2018-03-20T22:20:02.671Z,-2.2
2018-03-20T22:25:03.159Z,-2.2
2018-03-20T22:30:01.321Z,-2.2
2018-03-20T22:35:01.271Z,-2.2
2018-03-20T22:40:01.907Z,-2.2
2018-03-20T22:45:02.428Z,-2.2
2018-03-20T22:50:01.766Z,-2.2
2018-03-20T22:55:01.773Z,-2.6
2018-03-20T23:00:01.424Z,-2.6
2018-03-20T23:05:02.389Z,-2.6
2018-03-20T23:10:01.475Z,-2.6
2018-03-20T23:15:01.612Z,-2.6
2018-03-20T23:20:02.187Z,-2.6
2018-03-20T23:25:01.993Z,-2.6
2018-03-20T23:30:01.429Z,-2.6
2018-03-20T23:35:02.381Z,-3
2018-03-20T23:40:01.301Z,-3
2018-03-20T23:45:01.574Z,-3
2018-03-20T23:50:01.523Z,-3
2018-03-20T23:55:01.429Z,-3
